sensor_id;sensor_type;location;lat;lon;timestamp;temperature;humidity
78876;DHT22;68253;52.506;5.486;2023-04-15T00:00:28;9.20;60.50
78876;DHT22;68253;52.506;5.486;2023-04-15T00:02:54;9.20;60.50
78876;DHT22;68253;52.506;5.486;2023-04-15T00:05:21;9.20;60.50
78876;DHT22;68253;52.506;5.486;2023-04-15T00:07:47;9.10;60.60
78876;DHT22;68253;52.506;5.486;2023-04-15T00:10:13;9.00;60.70
78876;DHT22;68253;52.506;5.486;2023-04-15T00:12:39;9.00;60.80
78876;DHT22;68253;52.506;5.486;2023-04-15T00:15:07;9.00;61.00
78876;DHT22;68253;52.506;5.486;2023-04-15T00:17:34;8.90;61.10
78876;DHT22;68253;52.506;5.486;2023-04-15T00:20:00;8.90;61.20
78876;DHT22;68253;52.506;5.486;2023-04-15T00:22:27;8.80;61.30
78876;DHT22;68253;52.506;5.486;2023-04-15T00:24:53;8.80;61.40
78876;DHT22;68253;52.506;5.486;2023-04-15T00:27:19;8.70;61.50
78876;DHT22;68253;52.506;5.486;2023-04-15T00:29:45;8.70;61.50
78876;DHT22;68253;52.506;5.486;2023-04-15T00:32:11;8.60;61.70
78876;DHT22;68253;52.506;5.486;2023-04-15T00:34:40;8.60;61.90
78876;DHT22;68253;52.506;5.486;2023-04-15T00:37:08;8.60;62.00
78876;DHT22;68253;52.506;5.486;2023-04-15T00:39:35;8.50;61.90
78876;DHT22;68253;52.506;5.486;2023-04-15T00:42:03;8.50;61.90
78876;DHT22;68253;52.506;5.486;2023-04-15T00:44:30;8.40;62.00
78876;DHT22;68253;52.506;5.486;2023-04-15T00:46:56;8.40;62.10
78876;DHT22;68253;52.506;5.486;2023-04-15T00:49:22;8.40;62.20
78876;DHT22;68253;52.506;5.486;2023-04-15T00:51:49;8.40;62.30
78876;DHT22;68253;52.506;5.486;2023-04-15T00:54:15;8.30;62.40
78876;DHT22;68253;52.506;5.486;2023-04-15T00:56:41;8.30;62.50
78876;DHT22;68253;52.506;5.486;2023-04-15T00:59:08;8.20;62.50
78876;DHT22;68253;52.506;5.486;2023-04-15T01:01:35;8.20;62.60
78876;DHT22;68253;52.506;5.486;2023-04-15T01:04:02;8.10;62.70
78876;DHT22;68253;52.506;5.486;2023-04-15T01:06:29;8.10;62.80
78876;DHT22;68253;52.506;5.486;2023-04-15T01:08:57;8.10;62.90
78876;DHT22;68253;52.506;5.486;2023-04-15T01:11:23;8.00;62.80
78876;DHT22;68253;52.506;5.486;2023-04-15T01:13:51;8.00;62.90
78876;DHT22;68253;52.506;5.486;2023-04-15T01:16:18;8.00;63.00
78876;DHT22;68253;52.506;5.486;2023-04-15T01:18:44;8.00;63.20
78876;DHT22;68253;52.506;5.486;2023-04-15T01:21:11;8.00;63.20
78876;DHT22;68253;52.506;5.486;2023-04-15T01:23:38;7.90;63.30
78876;DHT22;68253;52.506;5.486;2023-04-15T01:26:08;7.90;63.40
78876;DHT22;68253;52.506;5.486;2023-04-15T01:28:35;7.80;63.50
78876;DHT22;68253;52.506;5.486;2023-04-15T01:33:35;7.80;63.60
78876;DHT22;68253;52.506;5.486;2023-04-15T01:36:02;7.80;63.70
78876;DHT22;68253;52.506;5.486;2023-04-15T01:38:28;7.80;63.80
78876;DHT22;68253;52.506;5.486;2023-04-15T01:40:55;7.70;63.80
78876;DHT22;68253;52.506;5.486;2023-04-15T01:43:27;7.70;63.80
78876;DHT22;68253;52.506;5.486;2023-04-15T01:45:54;7.60;63.90
78876;DHT22;68253;52.506;5.486;2023-04-15T01:48:20;7.60;64.00
78876;DHT22;68253;52.506;5.486;2023-04-15T01:50:47;7.60;63.90
78876;DHT22;68253;52.506;5.486;2023-04-15T01:53:14;7.60;64.10
78876;DHT22;68253;52.506;5.486;2023-04-15T01:55:40;7.60;64.20
78876;DHT22;68253;52.506;5.486;2023-04-15T01:58:07;7.60;64.30
78876;DHT22;68253;52.506;5.486;2023-04-15T02:00:33;7.60;64.20
78876;DHT22;68253;52.506;5.486;2023-04-15T02:02:59;7.60;64.40
78876;DHT22;68253;52.506;5.486;2023-04-15T02:05:25;7.60;64.50
78876;DHT22;68253;52.506;5.486;2023-04-15T02:07:51;7.60;64.50
78876;DHT22;68253;52.506;5.486;2023-04-15T02:10:18;7.50;64.50
78876;DHT22;68253;52.506;5.486;2023-04-15T02:12:44;7.50;64.60
78876;DHT22;68253;52.506;5.486;2023-04-15T02:15:11;7.50;64.70
78876;DHT22;68253;52.506;5.486;2023-04-15T02:17:37;7.50;64.80
78876;DHT22;68253;52.506;5.486;2023-04-15T02:20:04;7.50;64.80
78876;DHT22;68253;52.506;5.486;2023-04-15T02:22:33;7.50;64.90
78876;DHT22;68253;52.506;5.486;2023-04-15T02:24:59;7.50;65.00
78876;DHT22;68253;52.506;5.486;2023-04-15T02:27:26;7.50;65.10
78876;DHT22;68253;52.506;5.486;2023-04-15T02:29:53;7.50;65.10
78876;DHT22;68253;52.506;5.486;2023-04-15T02:32:19;7.40;65.10
78876;DHT22;68253;52.506;5.486;2023-04-15T02:34:48;7.40;65.20
78876;DHT22;68253;52.506;5.486;2023-04-15T02:37:14;7.40;65.30
78876;DHT22;68253;52.506;5.486;2023-04-15T02:39:41;7.40;65.30
78876;DHT22;68253;52.506;5.486;2023-04-15T02:42:07;7.40;65.40
78876;DHT22;68253;52.506;5.486;2023-04-15T02:44:33;7.40;65.40
78876;DHT22;68253;52.506;5.486;2023-04-15T02:47:02;7.30;65.50
78876;DHT22;68253;52.506;5.486;2023-04-15T02:49:30;7.30;65.50
78876;DHT22;68253;52.506;5.486;2023-04-15T02:51:57;7.20;65.50
78876;DHT22;68253;52.506;5.486;2023-04-15T02:54:25;7.20;65.60
78876;DHT22;68253;52.506;5.486;2023-04-15T02:56:53;7.20;65.60
78876;DHT22;68253;52.506;5.486;2023-04-15T02:59:22;7.20;65.70
78876;DHT22;68253;52.506;5.486;2023-04-15T03:01:49;7.20;65.70
78876;DHT22;68253;52.506;5.486;2023-04-15T03:04:15;7.20;65.60
78876;DHT22;68253;52.506;5.486;2023-04-15T03:06:41;7.20;65.80
78876;DHT22;68253;52.506;5.486;2023-04-15T03:09:09;7.20;65.80
78876;DHT22;68253;52.506;5.486;2023-04-15T03:11:37;7.20;65.80
78876;DHT22;68253;52.506;5.486;2023-04-15T03:14:06;7.20;65.90
78876;DHT22;68253;52.506;5.486;2023-04-15T03:16:35;7.20;66.00
78876;DHT22;68253;52.506;5.486;2023-04-15T03:19:01;7.20;66.10
78876;DHT22;68253;52.506;5.486;2023-04-15T03:21:27;7.20;66.20
78876;DHT22;68253;52.506;5.486;2023-04-15T03:23:53;7.20;66.20
78876;DHT22;68253;52.506;5.486;2023-04-15T03:26:28;7.10;66.30
78876;DHT22;68253;52.506;5.486;2023-04-15T03:28:57;7.00;66.20
78876;DHT22;68253;52.506;5.486;2023-04-15T03:31:24;7.00;66.30
78876;DHT22;68253;52.506;5.486;2023-04-15T03:33:50;7.00;66.30
78876;DHT22;68253;52.506;5.486;2023-04-15T03:36:17;7.00;66.30
78876;DHT22;68253;52.506;5.486;2023-04-15T03:38:43;7.00;66.40
78876;DHT22;68253;52.506;5.486;2023-04-15T03:41:09;7.00;66.50
78876;DHT22;68253;52.506;5.486;2023-04-15T03:43:35;7.00;66.50
78876;DHT22;68253;52.506;5.486;2023-04-15T03:46:01;7.00;66.50
78876;DHT22;68253;52.506;5.486;2023-04-15T03:48:27;7.00;66.50
78876;DHT22;68253;52.506;5.486;2023-04-15T03:50:54;6.90;66.50
78876;DHT22;68253;52.506;5.486;2023-04-15T03:53:20;7.00;66.70
78876;DHT22;68253;52.506;5.486;2023-04-15T03:55:46;7.00;67.00
78876;DHT22;68253;52.506;5.486;2023-04-15T03:58:12;6.90;67.10
78876;DHT22;68253;52.506;5.486;2023-04-15T04:00:39;7.00;67.10
78876;DHT22;68253;52.506;5.486;2023-04-15T04:03:06;6.90;67.20
78876;DHT22;68253;52.506;5.486;2023-04-15T04:05:33;6.90;67.20
78876;DHT22;68253;52.506;5.486;2023-04-15T04:08:01;6.90;67.20
78876;DHT22;68253;52.506;5.486;2023-04-15T04:10:28;6.80;67.50
78876;DHT22;68253;52.506;5.486;2023-04-15T04:12:54;6.80;67.40
78876;DHT22;68253;52.506;5.486;2023-04-15T04:15:20;6.80;67.50
78876;DHT22;68253;52.506;5.486;2023-04-15T04:17:46;6.80;67.60
78876;DHT22;68253;52.506;5.486;2023-04-15T04:20:12;6.80;67.70
78876;DHT22;68253;52.506;5.486;2023-04-15T04:22:38;6.80;67.80
78876;DHT22;68253;52.506;5.486;2023-04-15T04:25:06;6.70;67.80
78876;DHT22;68253;52.506;5.486;2023-04-15T04:27:33;6.70;68.00
78876;DHT22;68253;52.506;5.486;2023-04-15T04:30:00;6.70;68.00
78876;DHT22;68253;52.506;5.486;2023-04-15T04:32:26;6.70;68.10
78876;DHT22;68253;52.506;5.486;2023-04-15T04:34:52;6.60;68.20
78876;DHT22;68253;52.506;5.486;2023-04-15T04:37:18;6.60;68.30
78876;DHT22;68253;52.506;5.486;2023-04-15T04:39:45;6.60;68.50
78876;DHT22;68253;52.506;5.486;2023-04-15T04:42:11;6.60;68.50
78876;DHT22;68253;52.506;5.486;2023-04-15T04:44:37;6.60;68.70
78876;DHT22;68253;52.506;5.486;2023-04-15T04:47:03;6.60;68.60
78876;DHT22;68253;52.506;5.486;2023-04-15T04:49:31;6.60;68.70
78876;DHT22;68253;52.506;5.486;2023-04-15T04:51:57;6.60;68.60
78876;DHT22;68253;52.506;5.486;2023-04-15T04:54:24;6.60;68.70
78876;DHT22;68253;52.506;5.486;2023-04-15T04:56:50;6.60;68.70
78876;DHT22;68253;52.506;5.486;2023-04-15T04:59:16;6.60;68.70
78876;DHT22;68253;52.506;5.486;2023-04-15T05:01:42;6.60;68.70
78876;DHT22;68253;52.506;5.486;2023-04-15T05:04:08;6.60;68.70
78876;DHT22;68253;52.506;5.486;2023-04-15T05:06:34;6.60;68.80
78876;DHT22;68253;52.506;5.486;2023-04-15T05:09:02;6.60;68.80
78876;DHT22;68253;52.506;5.486;2023-04-15T05:11:28;6.60;68.80
78876;DHT22;68253;52.506;5.486;2023-04-15T05:13:54;6.60;68.80
78876;DHT22;68253;52.506;5.486;2023-04-15T05:16:21;6.70;68.90
78876;DHT22;68253;52.506;5.486;2023-04-15T05:18:47;6.70;68.90
78876;DHT22;68253;52.506;5.486;2023-04-15T05:21:13;6.70;69.00
78876;DHT22;68253;52.506;5.486;2023-04-15T05:23:39;6.70;69.00
78876;DHT22;68253;52.506;5.486;2023-04-15T05:26:05;6.70;69.00
78876;DHT22;68253;52.506;5.486;2023-04-15T05:28:31;6.80;69.00
78876;DHT22;68253;52.506;5.486;2023-04-15T05:30:58;6.80;68.90
78876;DHT22;68253;52.506;5.486;2023-04-15T05:33:24;6.80;68.90
78876;DHT22;68253;52.506;5.486;2023-04-15T05:35:50;6.90;68.90
78876;DHT22;68253;52.506;5.486;2023-04-15T05:38:16;6.90;68.90
78876;DHT22;68253;52.506;5.486;2023-04-15T05:40:42;6.90;69.00
78876;DHT22;68253;52.506;5.486;2023-04-15T05:43:08;6.90;68.90
78876;DHT22;68253;52.506;5.486;2023-04-15T05:45:35;7.00;69.00
78876;DHT22;68253;52.506;5.486;2023-04-15T05:48:01;7.00;68.90
78876;DHT22;68253;52.506;5.486;2023-04-15T05:50:27;7.00;68.90
78876;DHT22;68253;52.506;5.486;2023-04-15T05:52:53;7.10;68.80
78876;DHT22;68253;52.506;5.486;2023-04-15T05:55:20;7.20;68.80
78876;DHT22;68253;52.506;5.486;2023-04-15T05:57:47;7.20;68.80
78876;DHT22;68253;52.506;5.486;2023-04-15T06:00:13;7.20;68.70
78876;DHT22;68253;52.506;5.486;2023-04-15T06:02:40;7.20;68.60
78876;DHT22;68253;52.506;5.486;2023-04-15T06:05:06;7.20;68.50
78876;DHT22;68253;52.506;5.486;2023-04-15T06:07:35;7.30;68.60
78876;DHT22;68253;52.506;5.486;2023-04-15T06:10:02;7.30;68.50
78876;DHT22;68253;52.506;5.486;2023-04-15T06:12:28;7.40;68.50
78876;DHT22;68253;52.506;5.486;2023-04-15T06:14:55;7.40;68.50
78876;DHT22;68253;52.506;5.486;2023-04-15T06:17:21;7.50;68.50
78876;DHT22;68253;52.506;5.486;2023-04-15T06:19:47;7.50;68.50
78876;DHT22;68253;52.506;5.486;2023-04-15T06:22:15;7.50;68.40
78876;DHT22;68253;52.506;5.486;2023-04-15T06:24:41;7.60;68.50
78876;DHT22;68253;52.506;5.486;2023-04-15T06:27:07;7.70;68.30
78876;DHT22;68253;52.506;5.486;2023-04-15T06:29:33;7.80;68.30
78876;DHT22;68253;52.506;5.486;2023-04-15T06:32:00;7.90;68.20
78876;DHT22;68253;52.506;5.486;2023-04-15T06:34:26;8.00;68.20
78876;DHT22;68253;52.506;5.486;2023-04-15T06:36:52;8.10;68.20
78876;DHT22;68253;52.506;5.486;2023-04-15T06:39:19;8.30;68.00
78876;DHT22;68253;52.506;5.486;2023-04-15T06:41:45;8.50;67.80
78876;DHT22;68253;52.506;5.486;2023-04-15T06:44:12;8.60;67.60
78876;DHT22;68253;52.506;5.486;2023-04-15T06:46:38;8.80;67.40
78876;DHT22;68253;52.506;5.486;2023-04-15T06:49:04;9.00;67.30
78876;DHT22;68253;52.506;5.486;2023-04-15T06:51:30;9.20;67.00
78876;DHT22;68253;52.506;5.486;2023-04-15T06:53:57;9.40;66.60
78876;DHT22;68253;52.506;5.486;2023-04-15T06:56:23;9.50;66.50
78876;DHT22;68253;52.506;5.486;2023-04-15T06:58:49;9.70;66.20
78876;DHT22;68253;52.506;5.486;2023-04-15T07:01:16;9.80;66.10
78876;DHT22;68253;52.506;5.486;2023-04-15T07:03:42;10.00;65.90
78876;DHT22;68253;52.506;5.486;2023-04-15T07:06:08;10.20;65.70
78876;DHT22;68253;52.506;5.486;2023-04-15T07:08:35;10.40;65.30
78876;DHT22;68253;52.506;5.486;2023-04-15T07:11:01;10.60;64.80
78876;DHT22;68253;52.506;5.486;2023-04-15T07:13:29;10.80;64.60
78876;DHT22;68253;52.506;5.486;2023-04-15T07:15:55;11.00;64.40
78876;DHT22;68253;52.506;5.486;2023-04-15T07:18:22;11.10;63.80
78876;DHT22;68253;52.506;5.486;2023-04-15T07:20:48;11.30;63.40
78876;DHT22;68253;52.506;5.486;2023-04-15T07:23:14;11.30;63.30
78876;DHT22;68253;52.506;5.486;2023-04-15T07:25:41;11.30;63.00
78876;DHT22;68253;52.506;5.486;2023-04-15T07:28:07;11.20;62.80
78876;DHT22;68253;52.506;5.486;2023-04-15T07:30:33;11.10;62.90
78876;DHT22;68253;52.506;5.486;2023-04-15T07:32:59;10.90;62.90
78876;DHT22;68253;52.506;5.486;2023-04-15T07:35:26;10.90;63.10
78876;DHT22;68253;52.506;5.486;2023-04-15T07:37:52;10.90;63.20
78876;DHT22;68253;52.506;5.486;2023-04-15T07:40:18;11.00;63.40
78876;DHT22;68253;52.506;5.486;2023-04-15T07:42:45;11.30;63.40
78876;DHT22;68253;52.506;5.486;2023-04-15T07:45:11;11.50;62.90
78876;DHT22;68253;52.506;5.486;2023-04-15T07:47:37;11.70;62.40
78876;DHT22;68253;52.506;5.486;2023-04-15T07:50:04;11.90;62.10
78876;DHT22;68253;52.506;5.486;2023-04-15T07:52:31;11.90;61.90
78876;DHT22;68253;52.506;5.486;2023-04-15T07:55:07;11.90;61.80
78876;DHT22;68253;52.506;5.486;2023-04-15T07:57:34;11.90;61.60
78876;DHT22;68253;52.506;5.486;2023-04-15T08:00:02;11.90;61.70
78876;DHT22;68253;52.506;5.486;2023-04-15T08:02:39;11.90;61.50
78876;DHT22;68253;52.506;5.486;2023-04-15T08:05:05;11.80;61.50
78876;DHT22;68253;52.506;5.486;2023-04-15T08:07:32;11.70;61.50
78876;DHT22;68253;52.506;5.486;2023-04-15T08:09:58;11.60;61.50
78876;DHT22;68253;52.506;5.486;2023-04-15T08:12:24;11.50;61.50
78876;DHT22;68253;52.506;5.486;2023-04-15T08:14:51;11.50;61.50
78876;DHT22;68253;52.506;5.486;2023-04-15T08:17:17;11.40;61.80
78876;DHT22;68253;52.506;5.486;2023-04-15T08:19:43;11.40;61.90
78876;DHT22;68253;52.506;5.486;2023-04-15T08:22:09;11.50;61.90
78876;DHT22;68253;52.506;5.486;2023-04-15T08:24:39;11.50;62.00
78876;DHT22;68253;52.506;5.486;2023-04-15T08:27:06;11.50;62.10
78876;DHT22;68253;52.506;5.486;2023-04-15T08:29:33;11.70;62.10
78876;DHT22;68253;52.506;5.486;2023-04-15T08:32:00;11.90;62.10
78876;DHT22;68253;52.506;5.486;2023-04-15T08:34:27;12.20;61.80
78876;DHT22;68253;52.506;5.486;2023-04-15T08:36:53;12.40;61.50
78876;DHT22;68253;52.506;5.486;2023-04-15T08:39:19;12.70;61.40
78876;DHT22;68253;52.506;5.486;2023-04-15T08:42:01;12.80;61.10
78876;DHT22;68253;52.506;5.486;2023-04-15T08:44:29;13.10;60.70
78876;DHT22;68253;52.506;5.486;2023-04-15T08:47:00;13.20;60.30
78876;DHT22;68253;52.506;5.486;2023-04-15T08:49:28;13.30;60.10
78876;DHT22;68253;52.506;5.486;2023-04-15T08:51:55;13.30;60.20
78876;DHT22;68253;52.506;5.486;2023-04-15T08:54:23;13.50;60.00
78876;DHT22;68253;52.506;5.486;2023-04-15T08:56:49;13.60;59.90
78876;DHT22;68253;52.506;5.486;2023-04-15T08:59:16;13.60;59.70
78876;DHT22;68253;52.506;5.486;2023-04-15T09:01:43;13.60;59.60
78876;DHT22;68253;52.506;5.486;2023-04-15T09:04:10;13.70;59.80
78876;DHT22;68253;52.506;5.486;2023-04-15T09:06:38;13.70;59.80
78876;DHT22;68253;52.506;5.486;2023-04-15T09:09:05;13.90;59.90
78876;DHT22;68253;52.506;5.486;2023-04-15T09:11:31;13.90;59.80
78876;DHT22;68253;52.506;5.486;2023-04-15T09:13:57;14.00;59.80
78876;DHT22;68253;52.506;5.486;2023-04-15T09:16:23;14.20;59.70
78876;DHT22;68253;52.506;5.486;2023-04-15T09:18:49;14.30;59.70
78876;DHT22;68253;52.506;5.486;2023-04-15T09:21:16;14.50;59.80
78876;DHT22;68253;52.506;5.486;2023-04-15T09:24:01;14.70;59.70
78876;DHT22;68253;52.506;5.486;2023-04-15T09:26:37;14.90;59.40
78876;DHT22;68253;52.506;5.486;2023-04-15T09:29:06;14.90;58.80
78876;DHT22;68253;52.506;5.486;2023-04-15T09:31:33;14.80;58.70
78876;DHT22;68253;52.506;5.486;2023-04-15T09:33:59;14.70;58.80
78876;DHT22;68253;52.506;5.486;2023-04-15T09:36:25;14.70;59.20
78876;DHT22;68253;52.506;5.486;2023-04-15T09:38:57;14.60;59.10
78876;DHT22;68253;52.506;5.486;2023-04-15T09:41:24;14.60;59.00
78876;DHT22;68253;52.506;5.486;2023-04-15T09:43:51;14.50;59.30
78876;DHT22;68253;52.506;5.486;2023-04-15T09:46:17;14.50;59.40
78876;DHT22;68253;52.506;5.486;2023-04-15T09:48:44;14.60;59.00
78876;DHT22;68253;52.506;5.486;2023-04-15T09:51:10;14.60;58.80
78876;DHT22;68253;52.506;5.486;2023-04-15T09:53:36;14.60;59.00
78876;DHT22;68253;52.506;5.486;2023-04-15T09:56:05;14.70;58.90
78876;DHT22;68253;52.506;5.486;2023-04-15T09:58:34;14.90;59.10
78876;DHT22;68253;52.506;5.486;2023-04-15T10:01:03;15.10;58.40
78876;DHT22;68253;52.506;5.486;2023-04-15T10:03:34;15.30;57.60
78876;DHT22;68253;52.506;5.486;2023-04-15T10:06:04;15.40;57.30
78876;DHT22;68253;52.506;5.486;2023-04-15T10:08:33;15.60;57.30
78876;DHT22;68253;52.506;5.486;2023-04-15T10:11:02;15.70;56.90
78876;DHT22;68253;52.506;5.486;2023-04-15T10:13:30;15.70;56.80
78876;DHT22;68253;52.506;5.486;2023-04-15T10:16:14;15.70;57.00
78876;DHT22;68253;52.506;5.486;2023-04-15T10:18:43;15.60;56.40
78876;DHT22;68253;52.506;5.486;2023-04-15T10:21:10;15.60;56.50
78876;DHT22;68253;52.506;5.486;2023-04-15T10:23:39;15.60;56.80
78876;DHT22;68253;52.506;5.486;2023-04-15T10:26:06;15.70;56.50
78876;DHT22;68253;52.506;5.486;2023-04-15T10:28:32;15.80;56.40
78876;DHT22;68253;52.506;5.486;2023-04-15T10:30:58;16.00;56.60
78876;DHT22;68253;52.506;5.486;2023-04-15T10:33:25;16.10;56.50
78876;DHT22;68253;52.506;5.486;2023-04-15T10:35:54;16.40;56.10
78876;DHT22;68253;52.506;5.486;2023-04-15T10:38:41;16.40;55.80
78876;DHT22;68253;52.506;5.486;2023-04-15T10:41:25;16.60;56.10
78876;DHT22;68253;52.506;5.486;2023-04-15T10:44:01;16.80;55.90
78876;DHT22;68253;52.506;5.486;2023-04-15T10:46:41;16.90;55.50
78876;DHT22;68253;52.506;5.486;2023-04-15T10:49:13;17.20;55.80
78876;DHT22;68253;52.506;5.486;2023-04-15T10:51:41;17.40;55.40
78876;DHT22;68253;52.506;5.486;2023-04-15T10:54:16;17.40;54.90
78876;DHT22;68253;52.506;5.486;2023-04-15T10:59:30;17.50;54.80
78876;DHT22;68253;52.506;5.486;2023-04-15T11:02:04;17.50;54.40
78876;DHT22;68253;52.506;5.486;2023-04-15T11:04:51;17.50;54.50
78876;DHT22;68253;52.506;5.486;2023-04-15T11:12:48;18.00;54.50
78876;DHT22;68253;52.506;5.486;2023-04-15T11:15:40;18.30;53.90
78876;DHT22;68253;52.506;5.486;2023-04-15T11:18:20;18.50;54.00
78876;DHT22;68253;52.506;5.486;2023-04-15T11:20:48;18.60;53.60
78876;DHT22;68253;52.506;5.486;2023-04-15T11:23:41;18.70;53.50
78876;DHT22;68253;52.506;5.486;2023-04-15T11:26:12;18.90;53.30
78876;DHT22;68253;52.506;5.486;2023-04-15T11:28:40;19.10;53.10
78876;DHT22;68253;52.506;5.486;2023-04-15T11:33:43;19.30;52.40
78876;DHT22;68253;52.506;5.486;2023-04-15T11:36:10;19.30;52.50
78876;DHT22;68253;52.506;5.486;2023-04-15T11:38:41;19.30;52.10
78876;DHT22;68253;52.506;5.486;2023-04-15T11:41:07;19.40;52.30
78876;DHT22;68253;52.506;5.486;2023-04-15T11:43:36;19.50;52.40
78876;DHT22;68253;52.506;5.486;2023-04-15T11:46:02;19.50;52.30
78876;DHT22;68253;52.506;5.486;2023-04-15T11:48:31;19.70;52.50
78876;DHT22;68253;52.506;5.486;2023-04-15T11:51:02;19.80;52.40
78876;DHT22;68253;52.506;5.486;2023-04-15T11:53:49;19.90;51.80
78876;DHT22;68253;52.506;5.486;2023-04-15T11:56:18;19.70;52.10
78876;DHT22;68253;52.506;5.486;2023-04-15T11:58:45;19.60;52.20
78876;DHT22;68253;52.506;5.486;2023-04-15T12:01:11;19.50;51.90
78876;DHT22;68253;52.506;5.486;2023-04-15T12:03:42;19.40;52.00
78876;DHT22;68253;52.506;5.486;2023-04-15T12:06:12;19.20;52.30
78876;DHT22;68253;52.506;5.486;2023-04-15T12:11:31;19.10;52.70
78876;DHT22;68253;52.506;5.486;2023-04-15T12:14:03;19.30;52.50
78876;DHT22;68253;52.506;5.486;2023-04-15T12:16:29;19.40;52.30
78876;DHT22;68253;52.506;5.486;2023-04-15T12:18:57;19.40;52.20
78876;DHT22;68253;52.506;5.486;2023-04-15T12:21:26;19.10;52.10
78876;DHT22;68253;52.506;5.486;2023-04-15T12:23:54;18.90;52.50
78876;DHT22;68253;52.506;5.486;2023-04-15T12:26:35;18.70;52.20
78876;DHT22;68253;52.506;5.486;2023-04-15T12:29:06;18.40;52.70
78876;DHT22;68253;52.506;5.486;2023-04-15T12:31:34;18.00;52.80
78876;DHT22;68253;52.506;5.486;2023-04-15T12:34:02;17.70;53.20
78876;DHT22;68253;52.506;5.486;2023-04-15T12:36:29;17.40;53.50
78876;DHT22;68253;52.506;5.486;2023-04-15T12:39:02;17.10;54.10
78876;DHT22;68253;52.506;5.486;2023-04-15T12:41:29;17.00;54.40
78876;DHT22;68253;52.506;5.486;2023-04-15T12:43:56;16.80;54.70
78876;DHT22;68253;52.506;5.486;2023-04-15T12:46:22;16.70;54.80
78876;DHT22;68253;52.506;5.486;2023-04-15T12:48:49;16.70;55.20
78876;DHT22;68253;52.506;5.486;2023-04-15T12:51:16;16.80;54.80
78876;DHT22;68253;52.506;5.486;2023-04-15T12:53:42;16.70;55.20
78876;DHT22;68253;52.506;5.486;2023-04-15T12:56:08;16.60;54.80
78876;DHT22;68253;52.506;5.486;2023-04-15T12:58:34;16.40;55.00
78876;DHT22;68253;52.506;5.486;2023-04-15T13:01:01;16.30;55.30
78876;DHT22;68253;52.506;5.486;2023-04-15T13:03:27;16.10;55.70
78876;DHT22;68253;52.506;5.486;2023-04-15T13:05:53;16.10;55.80
78876;DHT22;68253;52.506;5.486;2023-04-15T13:08:20;16.00;55.90
78876;DHT22;68253;52.506;5.486;2023-04-15T13:10:46;16.00;55.80
78876;DHT22;68253;52.506;5.486;2023-04-15T13:13:12;15.80;56.00
78876;DHT22;68253;52.506;5.486;2023-04-15T13:15:38;15.80;55.90
78876;DHT22;68253;52.506;5.486;2023-04-15T13:18:06;15.60;55.90
78876;DHT22;68253;52.506;5.486;2023-04-15T13:20:32;15.50;56.10
78876;DHT22;68253;52.506;5.486;2023-04-15T13:22:58;15.40;56.00
78876;DHT22;68253;52.506;5.486;2023-04-15T13:25:24;15.20;56.20
78876;DHT22;68253;52.506;5.486;2023-04-15T13:27:51;14.90;56.80
78876;DHT22;68253;52.506;5.486;2023-04-15T13:30:17;14.60;57.50
78876;DHT22;68253;52.506;5.486;2023-04-15T13:32:43;14.40;57.90
78876;DHT22;68253;52.506;5.486;2023-04-15T13:35:09;14.20;58.50
78876;DHT22;68253;52.506;5.486;2023-04-15T13:37:35;14.00;58.80
78876;DHT22;68253;52.506;5.486;2023-04-15T13:40:01;14.00;58.80
78876;DHT22;68253;52.506;5.486;2023-04-15T13:42:28;14.00;59.00
78876;DHT22;68253;52.506;5.486;2023-04-15T13:44:54;14.10;59.10
78876;DHT22;68253;52.506;5.486;2023-04-15T13:47:20;14.10;59.00
78876;DHT22;68253;52.506;5.486;2023-04-15T13:49:46;14.20;59.20
78876;DHT22;68253;52.506;5.486;2023-04-15T13:52:13;14.30;59.10
78876;DHT22;68253;52.506;5.486;2023-04-15T13:54:39;14.40;59.00
78876;DHT22;68253;52.506;5.486;2023-04-15T13:57:05;14.40;58.90
78876;DHT22;68253;52.506;5.486;2023-04-15T13:59:34;14.40;58.90
78876;DHT22;68253;52.506;5.486;2023-04-15T14:02:01;14.50;58.70
78876;DHT22;68253;52.506;5.486;2023-04-15T14:04:27;14.60;58.40
78876;DHT22;68253;52.506;5.486;2023-04-15T14:06:53;14.60;58.20
78876;DHT22;68253;52.506;5.486;2023-04-15T14:09:19;14.50;57.80
78876;DHT22;68253;52.506;5.486;2023-04-15T14:11:49;14.40;58.10
78876;DHT22;68253;52.506;5.486;2023-04-15T14:14:15;14.30;58.20
78876;DHT22;68253;52.506;5.486;2023-04-15T14:16:42;14.10;58.40
78876;DHT22;68253;52.506;5.486;2023-04-15T14:19:08;14.00;58.50
78876;DHT22;68253;52.506;5.486;2023-04-15T14:21:34;13.90;58.40
78876;DHT22;68253;52.506;5.486;2023-04-15T14:24:00;13.90;58.50
78876;DHT22;68253;52.506;5.486;2023-04-15T14:26:26;13.90;58.40
78876;DHT22;68253;52.506;5.486;2023-04-15T14:28:52;13.90;58.60
78876;DHT22;68253;52.506;5.486;2023-04-15T14:31:18;13.90;58.60
78876;DHT22;68253;52.506;5.486;2023-04-15T14:33:45;13.70;58.60
78876;DHT22;68253;52.506;5.486;2023-04-15T14:36:11;13.50;58.80
78876;DHT22;68253;52.506;5.486;2023-04-15T14:38:37;13.30;59.20
78876;DHT22;68253;52.506;5.486;2023-04-15T14:41:05;13.10;59.70
78876;DHT22;68253;52.506;5.486;2023-04-15T14:43:32;13.00;60.00
78876;DHT22;68253;52.506;5.486;2023-04-15T14:45:58;12.80;60.20
78876;DHT22;68253;52.506;5.486;2023-04-15T14:48:24;12.70;60.60
78876;DHT22;68253;52.506;5.486;2023-04-15T14:50:51;12.50;60.70
78876;DHT22;68253;52.506;5.486;2023-04-15T14:53:17;12.50;60.80
78876;DHT22;68253;52.506;5.486;2023-04-15T14:55:44;12.50;60.90
78876;DHT22;68253;52.506;5.486;2023-04-15T14:58:10;12.40;60.80
78876;DHT22;68253;52.506;5.486;2023-04-15T15:00:39;12.30;60.70
78876;DHT22;68253;52.506;5.486;2023-04-15T15:03:10;12.30;60.50
78876;DHT22;68253;52.506;5.486;2023-04-15T15:05:40;12.20;60.70
78876;DHT22;68253;52.506;5.486;2023-04-15T15:08:07;12.10;61.00
78876;DHT22;68253;52.506;5.486;2023-04-15T15:10:34;12.00;61.30
78876;DHT22;68253;52.506;5.486;2023-04-15T15:13:05;11.90;61.80
78876;DHT22;68253;52.506;5.486;2023-04-15T15:15:32;11.90;61.80
78876;DHT22;68253;52.506;5.486;2023-04-15T15:17:59;11.80;62.20
78876;DHT22;68253;52.506;5.486;2023-04-15T15:20:25;11.90;62.20
78876;DHT22;68253;52.506;5.486;2023-04-15T15:22:52;11.90;61.90
78876;DHT22;68253;52.506;5.486;2023-04-15T15:25:18;11.90;61.90
78876;DHT22;68253;52.506;5.486;2023-04-15T15:27:44;11.90;61.90
78876;DHT22;68253;52.506;5.486;2023-04-15T15:30:11;11.90;62.00
78876;DHT22;68253;52.506;5.486;2023-04-15T15:32:41;11.90;62.20
78876;DHT22;68253;52.506;5.486;2023-04-15T15:35:08;11.80;62.40
78876;DHT22;68253;52.506;5.486;2023-04-15T15:37:35;11.80;62.60
78876;DHT22;68253;52.506;5.486;2023-04-15T15:40:03;11.80;62.40
78876;DHT22;68253;52.506;5.486;2023-04-15T15:42:33;11.80;62.20
78876;DHT22;68253;52.506;5.486;2023-04-15T15:44:59;11.70;62.20
78876;DHT22;68253;52.506;5.486;2023-04-15T15:47:25;11.70;62.30
78876;DHT22;68253;52.506;5.486;2023-04-15T15:49:53;11.50;62.50
78876;DHT22;68253;52.506;5.486;2023-04-15T15:52:19;11.50;62.70
78876;DHT22;68253;52.506;5.486;2023-04-15T15:54:45;11.40;62.80